sensor_id;sensor_type;location;lat;lon;timestamp;P1;durP1;ratioP1;P2;durP2;ratioP2
45114;SDS011;30877;43.706;10.780;2023-11-18T00:00:31;14.88;;;5.20;;
45114;SDS011;30877;43.706;10.780;2023-11-18T00:03:02;12.98;;;4.63;;
45114;SDS011;30877;43.706;10.780;2023-11-18T00:05:30;6.32;;;4.10;;
45114;SDS011;30877;43.706;10.780;2023-11-18T00:07:59;8.65;;;4.28;;
45114;SDS011;30877;43.706;10.780;2023-11-18T00:10:27;12.20;;;4.63;;
45114;SDS011;30877;43.706;10.780;2023-11-18T00:12:56;6.63;;;4.20;;
45114;SDS011;30877;43.706;10.780;2023-11-18T00:15:25;8.27;;;4.13;;
45114;SDS011;30877;43.706;10.780;2023-11-18T00:17:54;7.28;;;4.07;;
45114;SDS011;30877;43.706;10.780;2023-11-18T00:20:24;8.00;;;4.95;;
45114;SDS011;30877;43.706;10.780;2023-11-18T00:22:52;5.90;;;4.53;;
45114;SDS011;30877;43.706;10.780;2023-11-18T00:25:21;6.20;;;4.57;;
45114;SDS011;30877;43.706;10.780;2023-11-18T00:27:49;5.65;;;4.00;;
45114;SDS011;30877;43.706;10.780;2023-11-18T00:30:17;8.20;;;4.97;;
45114;SDS011;30877;43.706;10.780;2023-11-18T00:32:47;9.75;;;6.28;;
45114;SDS011;30877;43.706;10.780;2023-11-18T00:35:17;9.95;;;5.78;;
45114;SDS011;30877;43.706;10.780;2023-11-18T00:37:47;14.20;;;5.63;;
45114;SDS011;30877;43.706;10.780;2023-11-18T00:40:15;10.30;;;5.70;;
45114;SDS011;30877;43.706;10.780;2023-11-18T00:42:48;10.73;;;6.05;;
45114;SDS011;30877;43.706;10.780;2023-11-18T00:45:16;5.95;;;4.47;;
45114;SDS011;30877;43.706;10.780;2023-11-18T00:47:45;8.35;;;4.75;;
45114;SDS011;30877;43.706;10.780;2023-11-18T00:50:13;10.95;;;4.82;;
45114;SDS011;30877;43.706;10.780;2023-11-18T00:52:42;10.52;;;4.43;;
45114;SDS011;30877;43.706;10.780;2023-11-18T00:55:12;16.85;;;4.93;;
45114;SDS011;30877;43.706;10.780;2023-11-18T00:57:41;11.55;;;4.85;;
45114;SDS011;30877;43.706;10.780;2023-11-18T01:00:11;27.85;;;5.28;;
45114;SDS011;30877;43.706;10.780;2023-11-18T01:02:43;26.98;;;4.97;;
45114;SDS011;30877;43.706;10.780;2023-11-18T01:05:14;15.40;;;4.57;;
45114;SDS011;30877;43.706;10.780;2023-11-18T01:07:42;35.65;;;4.93;;
45114;SDS011;30877;43.706;10.780;2023-11-18T01:10:12;30.42;;;5.72;;
45114;SDS011;30877;43.706;10.780;2023-11-18T01:12:41;13.35;;;4.63;;
45114;SDS011;30877;43.706;10.780;2023-11-18T01:15:13;26.65;;;4.53;;
45114;SDS011;30877;43.706;10.780;2023-11-18T01:17:42;21.45;;;5.28;;
45114;SDS011;30877;43.706;10.780;2023-11-18T01:20:11;23.52;;;4.97;;
45114;SDS011;30877;43.706;10.780;2023-11-18T01:22:41;8.90;;;3.17;;
45114;SDS011;30877;43.706;10.780;2023-11-18T01:25:14;15.55;;;4.03;;
45114;SDS011;30877;43.706;10.780;2023-11-18T01:27:46;10.38;;;3.97;;
45114;SDS011;30877;43.706;10.780;2023-11-18T01:30:15;10.05;;;3.30;;
45114;SDS011;30877;43.706;10.780;2023-11-18T01:32:46;11.43;;;3.80;;
45114;SDS011;30877;43.706;10.780;2023-11-18T01:35:14;11.02;;;4.65;;
45114;SDS011;30877;43.706;10.780;2023-11-18T01:37:44;8.80;;;4.13;;
45114;SDS011;30877;43.706;10.780;2023-11-18T01:40:15;6.97;;;3.20;;
45114;SDS011;30877;43.706;10.780;2023-11-18T01:42:43;4.35;;;2.70;;
45114;SDS011;30877;43.706;10.780;2023-11-18T01:45:14;5.60;;;3.28;;
45114;SDS011;30877;43.706;10.780;2023-11-18T01:47:43;5.63;;;2.95;;
45114;SDS011;30877;43.706;10.780;2023-11-18T01:50:13;4.78;;;2.60;;
45114;SDS011;30877;43.706;10.780;2023-11-18T01:52:45;5.80;;;2.78;;
45114;SDS011;30877;43.706;10.780;2023-11-18T01:55:16;9.25;;;3.60;;
45114;SDS011;30877;43.706;10.780;2023-11-18T01:57:45;7.90;;;3.05;;
45114;SDS011;30877;43.706;10.780;2023-11-18T02:00:14;7.68;;;3.50;;
45114;SDS011;30877;43.706;10.780;2023-11-18T02:02:45;8.68;;;3.33;;
45114;SDS011;30877;43.706;10.780;2023-11-18T02:05:14;9.48;;;3.28;;
45114;SDS011;30877;43.706;10.780;2023-11-18T02:07:44;7.80;;;3.15;;
45114;SDS011;30877;43.706;10.780;2023-11-18T02:10:13;5.63;;;2.92;;
45114;SDS011;30877;43.706;10.780;2023-11-18T02:12:48;6.55;;;3.40;;
45114;SDS011;30877;43.706;10.780;2023-11-18T02:15:24;8.15;;;3.03;;
45114;SDS011;30877;43.706;10.780;2023-11-18T02:17:54;10.52;;;3.15;;
45114;SDS011;30877;43.706;10.780;2023-11-18T02:20:25;8.25;;;3.30;;
45114;SDS011;30877;43.706;10.780;2023-11-18T02:22:53;6.32;;;2.72;;
45114;SDS011;30877;43.706;10.780;2023-11-18T02:25:24;5.38;;;2.70;;
45114;SDS011;30877;43.706;10.780;2023-11-18T02:27:58;9.02;;;2.67;;
45114;SDS011;30877;43.706;10.780;2023-11-18T02:30:26;6.38;;;2.83;;
45114;SDS011;30877;43.706;10.780;2023-11-18T02:32:58;7.10;;;3.03;;
45114;SDS011;30877;43.706;10.780;2023-11-18T02:35:34;7.93;;;2.53;;
45114;SDS011;30877;43.706;10.780;2023-11-18T02:38:05;17.15;;;3.17;;
45114;SDS011;30877;43.706;10.780;2023-11-18T02:40:39;6.63;;;2.50;;
45114;SDS011;30877;43.706;10.780;2023-11-18T02:43:12;4.93;;;2.97;;
45114;SDS011;30877;43.706;10.780;2023-11-18T02:45:42;8.60;;;3.05;;
45114;SDS011;30877;43.706;10.780;2023-11-18T02:48:11;4.90;;;2.50;;
45114;SDS011;30877;43.706;10.780;2023-11-18T02:50:42;13.63;;;3.00;;
45114;SDS011;30877;43.706;10.780;2023-11-18T02:53:11;7.88;;;3.15;;
45114;SDS011;30877;43.706;10.780;2023-11-18T02:55:39;10.27;;;2.80;;
45114;SDS011;30877;43.706;10.780;2023-11-18T02:58:08;3.10;;;1.88;;
45114;SDS011;30877;43.706;10.780;2023-11-18T03:00:38;15.52;;;2.90;;
45114;SDS011;30877;43.706;10.780;2023-11-18T03:03:07;12.88;;;2.80;;
45114;SDS011;30877;43.706;10.780;2023-11-18T03:05:35;28.83;;;3.42;;
45114;SDS011;30877;43.706;10.780;2023-11-18T03:08:03;10.10;;;2.80;;
45114;SDS011;30877;43.706;10.780;2023-11-18T03:10:33;7.88;;;3.17;;
45114;SDS011;30877;43.706;10.780;2023-11-18T03:13:02;6.00;;;2.50;;
45114;SDS011;30877;43.706;10.780;2023-11-18T03:15:31;3.08;;;2.17;;
45114;SDS011;30877;43.706;10.780;2023-11-18T03:18:01;9.52;;;2.40;;
45114;SDS011;30877;43.706;10.780;2023-11-18T03:20:30;10.85;;;2.45;;
45114;SDS011;30877;43.706;10.780;2023-11-18T03:23:00;8.80;;;2.67;;
45114;SDS011;30877;43.706;10.780;2023-11-18T03:25:29;4.57;;;2.70;;
45114;SDS011;30877;43.706;10.780;2023-11-18T03:27:57;11.73;;;2.67;;
45114;SDS011;30877;43.706;10.780;2023-11-18T03:30:27;10.68;;;3.05;;
45114;SDS011;30877;43.706;10.780;2023-11-18T03:32:56;9.80;;;2.60;;
45114;SDS011;30877;43.706;10.780;2023-11-18T03:35:27;4.82;;;2.50;;
45114;SDS011;30877;43.706;10.780;2023-11-18T03:37:55;13.18;;;2.90;;
45114;SDS011;30877;43.706;10.780;2023-11-18T03:40:23;6.60;;;2.80;;
45114;SDS011;30877;43.706;10.780;2023-11-18T03:42:52;4.10;;;2.40;;
45114;SDS011;30877;43.706;10.780;2023-11-18T03:45:22;4.10;;;2.28;;
45114;SDS011;30877;43.706;10.780;2023-11-18T03:47:50;8.55;;;2.70;;
45114;SDS011;30877;43.706;10.780;2023-11-18T03:50:19;3.50;;;2.30;;
45114;SDS011;30877;43.706;10.780;2023-11-18T03:52:49;6.18;;;2.70;;
45114;SDS011;30877;43.706;10.780;2023-11-18T03:55:17;3.28;;;2.05;;
45114;SDS011;30877;43.706;10.780;2023-11-18T03:57:46;9.60;;;2.40;;
45114;SDS011;30877;43.706;10.780;2023-11-18T04:00:15;13.05;;;2.78;;
45114;SDS011;30877;43.706;10.780;2023-11-18T04:02:45;17.00;;;2.85;;
45114;SDS011;30877;43.706;10.780;2023-11-18T04:05:13;9.63;;;2.38;;
45114;SDS011;30877;43.706;10.780;2023-11-18T04:07:42;2.92;;;1.75;;
45114;SDS011;30877;43.706;10.780;2023-11-18T04:10:12;3.80;;;2.00;;
45114;SDS011;30877;43.706;10.780;2023-11-18T04:12:41;3.15;;;1.52;;
45114;SDS011;30877;43.706;10.780;2023-11-18T04:15:14;4.00;;;1.67;;
45114;SDS011;30877;43.706;10.780;2023-11-18T04:17:45;5.90;;;1.98;;
45114;SDS011;30877;43.706;10.780;2023-11-18T04:20:13;5.78;;;1.55;;
45114;SDS011;30877;43.706;10.780;2023-11-18T04:22:43;3.00;;;1.80;;
45114;SDS011;30877;43.706;10.780;2023-11-18T04:25:14;3.95;;;2.00;;
45114;SDS011;30877;43.706;10.780;2023-11-18T04:27:43;7.50;;;1.77;;
45114;SDS011;30877;43.706;10.780;2023-11-18T04:30:13;4.70;;;2.10;;
45114;SDS011;30877;43.706;10.780;2023-11-18T04:32:42;7.63;;;2.40;;
45114;SDS011;30877;43.706;10.780;2023-11-18T04:35:11;8.73;;;2.45;;
45114;SDS011;30877;43.706;10.780;2023-11-18T04:37:40;5.35;;;2.13;;
45114;SDS011;30877;43.706;10.780;2023-11-18T04:40:11;5.40;;;2.70;;
45114;SDS011;30877;43.706;10.780;2023-11-18T04:42:41;13.05;;;3.22;;
45114;SDS011;30877;43.706;10.780;2023-11-18T04:45:11;9.15;;;2.42;;
45114;SDS011;30877;43.706;10.780;2023-11-18T04:47:41;6.05;;;2.65;;
45114;SDS011;30877;43.706;10.780;2023-11-18T04:50:11;4.10;;;2.53;;
45114;SDS011;30877;43.706;10.780;2023-11-18T04:52:40;5.05;;;1.80;;
45114;SDS011;30877;43.706;10.780;2023-11-18T04:55:09;4.85;;;2.35;;
45114;SDS011;30877;43.706;10.780;2023-11-18T04:57:42;2.42;;;1.48;;
45114;SDS011;30877;43.706;10.780;2023-11-18T05:00:11;4.35;;;1.40;;
45114;SDS011;30877;43.706;10.780;2023-11-18T05:02:44;11.18;;;1.60;;
45114;SDS011;30877;43.706;10.780;2023-11-18T05:05:15;3.35;;;1.80;;
45114;SDS011;30877;43.706;10.780;2023-11-18T05:07:45;9.63;;;1.48;;
45114;SDS011;30877;43.706;10.780;2023-11-18T05:10:13;10.18;;;1.52;;
45114;SDS011;30877;43.706;10.780;2023-11-18T05:12:44;7.85;;;2.55;;
45114;SDS011;30877;43.706;10.780;2023-11-18T05:15:20;5.75;;;1.33;;
45114;SDS011;30877;43.706;10.780;2023-11-18T05:17:52;1.98;;;1.40;;
45114;SDS011;30877;43.706;10.780;2023-11-18T05:20:21;4.60;;;1.85;;
45114;SDS011;30877;43.706;10.780;2023-11-18T05:22:50;4.00;;;2.00;;
45114;SDS011;30877;43.706;10.780;2023-11-18T05:25:18;2.38;;;1.40;;
45114;SDS011;30877;43.706;10.780;2023-11-18T05:27:49;3.83;;;1.63;;
45114;SDS011;30877;43.706;10.780;2023-11-18T05:30:17;2.58;;;1.55;;
45114;SDS011;30877;43.706;10.780;2023-11-18T05:32:45;2.40;;;1.20;;
45114;SDS011;30877;43.706;10.780;2023-11-18T05:35:14;2.17;;;1.38;;
45114;SDS011;30877;43.706;10.780;2023-11-18T05:37:42;3.92;;;0.93;;
45114;SDS011;30877;43.706;10.780;2023-11-18T05:40:11;2.55;;;0.82;;
45114;SDS011;30877;43.706;10.780;2023-11-18T05:42:43;1.52;;;0.98;;
45114;SDS011;30877;43.706;10.780;2023-11-18T05:45:15;3.25;;;1.10;;
45114;SDS011;30877;43.706;10.780;2023-11-18T05:48:06;1.10;;;0.90;;
45114;SDS011;30877;43.706;10.780;2023-11-18T05:50:35;2.08;;;1.00;;
45114;SDS011;30877;43.706;10.780;2023-11-18T05:53:03;4.45;;;0.93;;
45114;SDS011;30877;43.706;10.780;2023-11-18T05:55:32;2.92;;;1.10;;
45114;SDS011;30877;43.706;10.780;2023-11-18T05:58:00;4.40;;;1.17;;
45114;SDS011;30877;43.706;10.780;2023-11-18T06:00:30;1.33;;;1.00;;
45114;SDS011;30877;43.706;10.780;2023-11-18T06:03:07;3.25;;;0.75;;
45114;SDS011;30877;43.706;10.780;2023-11-18T06:05:35;4.18;;;0.88;;
45114;SDS011;30877;43.706;10.780;2023-11-18T06:08:04;8.23;;;1.00;;
45114;SDS011;30877;43.706;10.780;2023-11-18T06:10:32;6.72;;;1.05;;
45114;SDS011;30877;43.706;10.780;2023-11-18T06:13:01;4.40;;;1.13;;
45114;SDS011;30877;43.706;10.780;2023-11-18T06:15:33;5.28;;;1.10;;
45114;SDS011;30877;43.706;10.780;2023-11-18T06:18:03;4.80;;;1.10;;
45114;SDS011;30877;43.706;10.780;2023-11-18T06:20:34;1.75;;;0.60;;
45114;SDS011;30877;43.706;10.780;2023-11-18T06:23:04;4.03;;;1.42;;
45114;SDS011;30877;43.706;10.780;2023-11-18T06:25:32;2.25;;;1.20;;
45114;SDS011;30877;43.706;10.780;2023-11-18T06:28:03;3.75;;;1.23;;
45114;SDS011;30877;43.706;10.780;2023-11-18T06:30:36;3.78;;;1.42;;
45114;SDS011;30877;43.706;10.780;2023-11-18T06:33:05;5.18;;;1.58;;
45114;SDS011;30877;43.706;10.780;2023-11-18T06:35:34;5.32;;;1.40;;
45114;SDS011;30877;43.706;10.780;2023-11-18T06:38:04;5.00;;;1.55;;
45114;SDS011;30877;43.706;10.780;2023-11-18T06:40:32;6.57;;;1.65;;
45114;SDS011;30877;43.706;10.780;2023-11-18T06:43:02;5.10;;;1.67;;
45114;SDS011;30877;43.706;10.780;2023-11-18T06:45:43;6.05;;;1.70;;
45114;SDS011;30877;43.706;10.780;2023-11-18T06:48:11;6.07;;;1.83;;
45114;SDS011;30877;43.706;10.780;2023-11-18T06:50:42;3.88;;;1.42;;
45114;SDS011;30877;43.706;10.780;2023-11-18T06:53:11;3.33;;;1.65;;
45114;SDS011;30877;43.706;10.780;2023-11-18T06:55:39;3.20;;;2.25;;
45114;SDS011;30877;43.706;10.780;2023-11-18T06:58:08;2.92;;;2.22;;
45114;SDS011;30877;43.706;10.780;2023-11-18T07:00:37;3.53;;;1.52;;
45114;SDS011;30877;43.706;10.780;2023-11-18T07:03:07;3.10;;;2.28;;
45114;SDS011;30877;43.706;10.780;2023-11-18T07:05:36;3.53;;;1.92;;
45114;SDS011;30877;43.706;10.780;2023-11-18T07:08:04;3.95;;;2.13;;
45114;SDS011;30877;43.706;10.780;2023-11-18T07:10:32;3.10;;;2.00;;
45114;SDS011;30877;43.706;10.780;2023-11-18T07:13:00;4.70;;;1.73;;
45114;SDS011;30877;43.706;10.780;2023-11-18T07:15:29;4.38;;;1.88;;
45114;SDS011;30877;43.706;10.780;2023-11-18T07:17:57;7.47;;;2.20;;
45114;SDS011;30877;43.706;10.780;2023-11-18T07:20:27;9.82;;;2.42;;
45114;SDS011;30877;43.706;10.780;2023-11-18T07:22:55;5.57;;;1.80;;
45114;SDS011;30877;43.706;10.780;2023-11-18T07:25:24;6.82;;;2.15;;
45114;SDS011;30877;43.706;10.780;2023-11-18T07:27:52;3.78;;;1.75;;
45114;SDS011;30877;43.706;10.780;2023-11-18T07:30:20;2.88;;;1.60;;
45114;SDS011;30877;43.706;10.780;2023-11-18T07:32:51;1.35;;;1.00;;
45114;SDS011;30877;43.706;10.780;2023-11-18T07:35:19;4.28;;;1.50;;
45114;SDS011;30877;43.706;10.780;2023-11-18T07:37:50;3.15;;;1.45;;
45114;SDS011;30877;43.706;10.780;2023-11-18T07:40:19;2.90;;;1.30;;
45114;SDS011;30877;43.706;10.780;2023-11-18T07:42:55;3.17;;;1.20;;
45114;SDS011;30877;43.706;10.780;2023-11-18T07:45:23;3.05;;;1.20;;
45114;SDS011;30877;43.706;10.780;2023-11-18T07:47:52;3.15;;;1.60;;
45114;SDS011;30877;43.706;10.780;2023-11-18T07:50:21;3.80;;;2.20;;
45114;SDS011;30877;43.706;10.780;2023-11-18T07:52:51;4.20;;;3.08;;
45114;SDS011;30877;43.706;10.780;2023-11-18T07:55:19;6.85;;;3.42;;
45114;SDS011;30877;43.706;10.780;2023-11-18T07:57:50;4.40;;;3.28;;
45114;SDS011;30877;43.706;10.780;2023-11-18T08:00:19;5.35;;;3.15;;
45114;SDS011;30877;43.706;10.780;2023-11-18T08:02:48;6.18;;;3.22;;
45114;SDS011;30877;43.706;10.780;2023-11-18T08:05:16;5.15;;;2.70;;
45114;SDS011;30877;43.706;10.780;2023-11-18T08:07:46;7.88;;;3.28;;
45114;SDS011;30877;43.706;10.780;2023-11-18T08:10:16;4.22;;;2.53;;
45114;SDS011;30877;43.706;10.780;2023-11-18T08:12:46;2.85;;;2.58;;
45114;SDS011;30877;43.706;10.780;2023-11-18T08:32:01;4.72;;;3.22;;
45114;SDS011;30877;43.706;10.780;2023-11-18T08:34:31;8.20;;;3.00;;
45114;SDS011;30877;43.706;10.780;2023-11-18T08:37:00;5.93;;;2.85;;
45114;SDS011;30877;43.706;10.780;2023-11-18T08:39:30;4.57;;;3.30;;
45114;SDS011;30877;43.706;10.780;2023-11-18T08:42:00;4.43;;;3.20;;
45114;SDS011;30877;43.706;10.780;2023-11-18T08:44:29;5.35;;;3.30;;
45114;SDS011;30877;43.706;10.780;2023-11-18T08:47:01;5.47;;;2.83;;
45114;SDS011;30877;43.706;10.780;2023-11-18T08:49:35;6.18;;;3.33;;
45114;SDS011;30877;43.706;10.780;2023-11-18T08:52:06;7.47;;;3.17;;
45114;SDS011;30877;43.706;10.780;2023-11-18T08:54:37;4.72;;;3.20;;
45114;SDS011;30877;43.706;10.780;2023-11-18T08:57:05;10.27;;;3.30;;
45114;SDS011;30877;43.706;10.780;2023-11-18T08:59:50;4.35;;;2.60;;
45114;SDS011;30877;43.706;10.780;2023-11-18T09:02:21;3.63;;;2.30;;
45114;SDS011;30877;43.706;10.780;2023-11-18T09:04:51;8.02;;;2.30;;
45114;SDS011;30877;43.706;10.780;2023-11-18T09:07:22;4.10;;;2.35;;
45114;SDS011;30877;43.706;10.780;2023-11-18T09:09:51;5.95;;;2.08;;
45114;SDS011;30877;43.706;10.780;2023-11-18T09:12:20;4.32;;;2.00;;
45114;SDS011;30877;43.706;10.780;2023-11-18T09:14:48;4.85;;;2.17;;
45114;SDS011;30877;43.706;10.780;2023-11-18T09:17:20;3.67;;;1.80;;
45114;SDS011;30877;43.706;10.780;2023-11-18T09:19:50;3.60;;;1.70;;
45114;SDS011;30877;43.706;10.780;2023-11-18T09:22:20;4.50;;;1.70;;
45114;SDS011;30877;43.706;10.780;2023-11-18T09:24:49;3.75;;;1.75;;
45114;SDS011;30877;43.706;10.780;2023-11-18T09:27:18;5.22;;;1.92;;
45114;SDS011;30877;43.706;10.780;2023-11-18T09:29:46;5.00;;;1.70;;
45114;SDS011;30877;43.706;10.780;2023-11-18T09:32:16;5.55;;;1.77;;
45114;SDS011;30877;43.706;10.780;2023-11-18T09:34:47;2.90;;;1.50;;
45114;SDS011;30877;43.706;10.780;2023-11-18T09:37:16;5.97;;;1.40;;
45114;SDS011;30877;43.706;10.780;2023-11-18T09:39:45;3.30;;;1.77;;
45114;SDS011;30877;43.706;10.780;2023-11-18T09:42:19;2.88;;;1.70;;
45114;SDS011;30877;43.706;10.780;2023-11-18T09:44:51;5.20;;;1.80;;
45114;SDS011;30877;43.706;10.780;2023-11-18T09:47:20;4.70;;;1.70;;
45114;SDS011;30877;43.706;10.780;2023-11-18T09:49:54;3.95;;;2.03;;
45114;SDS011;30877;43.706;10.780;2023-11-18T09:52:25;5.68;;;2.10;;
45114;SDS011;30877;43.706;10.780;2023-11-18T09:55:00;5.57;;;2.15;;
45114;SDS011;30877;43.706;10.780;2023-11-18T09:57:31;4.60;;;1.95;;
45114;SDS011;30877;43.706;10.780;2023-11-18T10:14:47;5.78;;;2.53;;
45114;SDS011;30877;43.706;10.780;2023-11-18T10:17:18;4.97;;;1.80;;
45114;SDS011;30877;43.706;10.780;2023-11-18T10:19:49;5.95;;;2.35;;
45114;SDS011;30877;43.706;10.780;2023-11-18T10:22:25;6.68;;;2.15;;
45114;SDS011;30877;43.706;10.780;2023-11-18T10:24:55;7.18;;;1.80;;
45114;SDS011;30877;43.706;10.780;2023-11-18T10:27:25;4.47;;;1.95;;
45114;SDS011;30877;43.706;10.780;2023-11-18T10:29:56;6.60;;;2.05;;
45114;SDS011;30877;43.706;10.780;2023-11-18T10:32:25;4.28;;;1.83;;
45114;SDS011;30877;43.706;10.780;2023-11-18T10:34:55;4.03;;;1.60;;
45114;SDS011;30877;43.706;10.780;2023-11-18T10:49:01;4.93;;;2.30;;
45114;SDS011;30877;43.706;10.780;2023-11-18T10:51:29;7.32;;;1.98;;
45114;SDS011;30877;43.706;10.780;2023-11-18T10:54:01;4.60;;;1.95;;
45114;SDS011;30877;43.706;10.780;2023-11-18T10:56:31;3.60;;;1.52;;
45114;SDS011;30877;43.706;10.780;2023-11-18T10:59:03;4.78;;;1.63;;
45114;SDS011;30877;43.706;10.780;2023-11-18T11:01:37;7.55;;;2.38;;
45114;SDS011;30877;43.706;10.780;2023-11-18T11:04:12;4.97;;;1.50;;
45114;SDS011;30877;43.706;10.780;2023-11-18T11:06:44;4.93;;;1.40;;
45114;SDS011;30877;43.706;10.780;2023-11-18T11:09:24;4.47;;;1.70;;
45114;SDS011;30877;43.706;10.780;2023-11-18T11:11:56;2.63;;;1.60;;
45114;SDS011;30877;43.706;10.780;2023-11-18T11:14:32;3.72;;;2.15;;
45114;SDS011;30877;43.706;10.780;2023-11-18T11:17:07;4.20;;;1.80;;
45114;SDS011;30877;43.706;10.780;2023-11-18T11:19:50;4.68;;;1.70;;
45114;SDS011;30877;43.706;10.780;2023-11-18T11:22:28;3.33;;;1.60;;
45114;SDS011;30877;43.706;10.780;2023-11-18T11:25:07;2.72;;;1.73;;
45114;SDS011;30877;43.706;10.780;2023-11-18T11:27:51;3.88;;;1.85;;
45114;SDS011;30877;43.706;10.780;2023-11-18T11:30:29;3.83;;;1.70;;
45114;SDS011;30877;43.706;10.780;2023-11-18T11:33:09;4.20;;;2.20;;
45114;SDS011;30877;43.706;10.780;2023-11-18T11:35:48;5.18;;;2.25;;
45114;SDS011;30877;43.706;10.780;2023-11-18T11:38:24;8.13;;;3.58;;
45114;SDS011;30877;43.706;10.780;2023-11-18T11:40:56;9.13;;;4.60;;
45114;SDS011;30877;43.706;10.780;2023-11-18T11:43:29;6.75;;;2.97;;
45114;SDS011;30877;43.706;10.780;2023-11-18T11:46:02;5.72;;;2.83;;
45114;SDS011;30877;43.706;10.780;2023-11-18T11:51:15;6.63;;;3.20;;
45114;SDS011;30877;43.706;10.780;2023-11-18T11:53:49;8.75;;;3.20;;
45114;SDS011;30877;43.706;10.780;2023-11-18T11:56:37;6.60;;;2.80;;
45114;SDS011;30877;43.706;10.780;2023-11-18T11:59:07;7.75;;;3.50;;
45114;SDS011;30877;43.706;10.780;2023-11-18T12:01:39;5.35;;;3.50;;
45114;SDS011;30877;43.706;10.780;2023-11-18T12:04:14;7.78;;;2.88;;
45114;SDS011;30877;43.706;10.780;2023-11-18T12:06:50;7.88;;;2.80;;
45114;SDS011;30877;43.706;10.780;2023-11-18T12:09:38;6.90;;;2.83;;
45114;SDS011;30877;43.706;10.780;2023-11-18T12:12:16;5.72;;;2.47;;
45114;SDS011;30877;43.706;10.780;2023-11-18T12:14:49;4.95;;;2.83;;
45114;SDS011;30877;43.706;10.780;2023-11-18T12:17:19;4.90;;;2.92;;
45114;SDS011;30877;43.706;10.780;2023-11-18T12:19:56;5.10;;;2.67;;
45114;SDS011;30877;43.706;10.780;2023-11-18T12:25:43;4.90;;;2.72;;
45114;SDS011;30877;43.706;10.780;2023-11-18T12:28:25;5.95;;;2.90;;
45114;SDS011;30877;43.706;10.780;2023-11-18T12:30:55;6.65;;;3.20;;
45114;SDS011;30877;43.706;10.780;2023-11-18T12:33:25;6.50;;;3.38;;
45114;SDS011;30877;43.706;10.780;2023-11-18T12:39:32;7.75;;;3.25;;
45114;SDS011;30877;43.706;10.780;2023-11-18T12:42:58;4.03;;;2.83;;
45114;SDS011;30877;43.706;10.780;2023-11-18T12:45:56;4.70;;;3.00;;
45114;SDS011;30877;43.706;10.780;2023-11-18T12:48:47;6.75;;;3.55;;
45114;SDS011;30877;43.706;10.780;2023-11-18T12:51:18;5.20;;;3.20;;
45114;SDS011;30877;43.706;10.780;2023-11-18T12:53:49;5.60;;;2.85;;
45114;SDS011;30877;43.706;10.780;2023-11-18T12:56:19;5.15;;;3.00;;
45114;SDS011;30877;43.706;10.780;2023-11-18T12:58:49;4.38;;;3.10;;
45114;SDS011;30877;43.706;10.780;2023-11-18T13:01:19;5.22;;;3.00;;
45114;SDS011;30877;43.706;10.780;2023-11-18T13:03:47;5.47;;;3.65;;
45114;SDS011;30877;43.706;10.780;2023-11-18T13:06:16;5.10;;;2.88;;
45114;SDS011;30877;43.706;10.780;2023-11-18T13:08:44;5.20;;;3.13;;
45114;SDS011;30877;43.706;10.780;2023-11-18T13:11:13;9.50;;;6.82;;
45114;SDS011;30877;43.706;10.780;2023-11-18T13:13:45;7.32;;;4.30;;
45114;SDS011;30877;43.706;10.780;2023-11-18T13:16:14;5.45;;;3.40;;
45114;SDS011;30877;43.706;10.780;2023-11-18T13:18:42;7.85;;;3.20;;
45114;SDS011;30877;43.706;10.780;2023-11-18T13:21:15;4.85;;;3.22;;
45114;SDS011;30877;43.706;10.780;2023-11-18T13:23:45;5.30;;;3.28;;
45114;SDS011;30877;43.706;10.780;2023-11-18T13:26:20;6.38;;;3.55;;
45114;SDS011;30877;43.706;10.780;2023-11-18T13:28:51;4.35;;;3.20;;
45114;SDS011;30877;43.706;10.780;2023-11-18T13:31:21;7.53;;;3.58;;
45114;SDS011;30877;43.706;10.780;2023-11-18T13:33:52;7.47;;;3.28;;
45114;SDS011;30877;43.706;10.780;2023-11-18T13:36:21;6.82;;;3.30;;
45114;SDS011;30877;43.706;10.780;2023-11-18T13:38:49;5.78;;;3.22;;
45114;SDS011;30877;43.706;10.780;2023-11-18T13:41:30;8.00;;;3.40;;
45114;SDS011;30877;43.706;10.780;2023-11-18T13:44:01;7.35;;;3.30;;
45114;SDS011;30877;43.706;10.780;2023-11-18T13:46:30;5.80;;;3.10;;
45114;SDS011;30877;43.706;10.780;2023-11-18T13:48:58;4.90;;;2.92;;
45114;SDS011;30877;43.706;10.780;2023-11-18T13:51:27;4.78;;;2.58;;
45114;SDS011;30877;43.706;10.780;2023-11-18T13:53:58;6.72;;;2.95;;
45114;SDS011;30877;43.706;10.780;2023-11-18T13:56:27;4.13;;;2.67;;
45114;SDS011;30877;43.706;10.780;2023-11-18T13:58:58;5.15;;;2.72;;
45114;SDS011;30877;43.706;10.780;2023-11-18T14:01:28;5.35;;;2.60;;
45114;SDS011;30877;43.706;10.780;2023-11-18T14:03:57;4.93;;;2.67;;
45114;SDS011;30877;43.706;10.780;2023-11-18T14:06:32;4.65;;;2.78;;
45114;SDS011;30877;43.706;10.780;2023-11-18T14:09:01;3.95;;;2.20;;
45114;SDS011;30877;43.706;10.780;2023-11-18T14:11:31;4.45;;;2.63;;
45114;SDS011;30877;43.706;10.780;2023-11-18T14:14:03;4.55;;;2.63;;
45114;SDS011;30877;43.706;10.780;2023-11-18T14:16:33;3.22;;;2.10;;
45114;SDS011;30877;43.706;10.780;2023-11-18T14:19:02;3.45;;;2.42;;
45114;SDS011;30877;43.706;10.780;2023-11-18T14:21:30;7.63;;;2.83;;
45114;SDS011;30877;43.706;10.780;2023-11-18T14:23:59;8.23;;;3.42;;
45114;SDS011;30877;43.706;10.780;2023-11-18T14:26:30;6.93;;;3.40;;
45114;SDS011;30877;43.706;10.780;2023-11-18T14:28:59;6.75;;;3.17;;
45114;SDS011;30877;43.706;10.780;2023-11-18T14:31:29;3.30;;;2.47;;
45114;SDS011;30877;43.706;10.780;2023-11-18T14:33:57;4.57;;;2.63;;
45114;SDS011;30877;43.706;10.780;2023-11-18T14:36:27;6.35;;;2.53;;
45114;SDS011;30877;43.706;10.780;2023-11-18T14:38:55;4.95;;;3.05;;
45114;SDS011;30877;43.706;10.780;2023-11-18T14:41:26;7.32;;;3.20;;
45114;SDS011;30877;43.706;10.780;2023-11-18T14:43:58;4.50;;;2.30;;
45114;SDS011;30877;43.706;10.780;2023-11-18T14:46:29;3.92;;;2.67;;
45114;SDS011;30877;43.706;10.780;2023-11-18T14:49:02;3.63;;;2.45;;
45114;SDS011;30877;43.706;10.780;2023-11-18T14:51:33;5.47;;;3.50;;
45114;SDS011;30877;43.706;10.780;2023-11-18T14:54:03;6.53;;;3.53;;
45114;SDS011;30877;43.706;10.780;2023-11-18T14:56:33;3.50;;;2.42;;
45114;SDS011;30877;43.706;10.780;2023-11-18T14:59:02;4.85;;;3.20;;
45114;SDS011;30877;43.706;10.780;2023-11-18T15:01:34;5.50;;;3.08;;
45114;SDS011;30877;43.706;10.780;2023-11-18T15:04:03;5.65;;;3.03;;
45114;SDS011;30877;43.706;10.780;2023-11-18T15:06:36;5.10;;;2.88;;
45114;SDS011;30877;43.706;10.780;2023-11-18T15:09:05;5.70;;;3.55;;
45114;SDS011;30877;43.706;10.780;2023-11-18T15:11:38;5.15;;;2.67;;
45114;SDS011;30877;43.706;10.780;2023-11-18T15:14:06;5.55;;;3.70;;
45114;SDS011;30877;43.706;10.780;2023-11-18T15:16:36;5.28;;;3.17;;
45114;SDS011;30877;43.706;10.780;2023-11-18T15:19:05;5.45;;;3.30;;
45114;SDS011;30877;43.706;10.780;2023-11-18T15:21:33;4.53;;;3.70;;
45114;SDS011;30877;43.706;10.780;2023-11-18T15:24:02;9.15;;;6.55;;
45114;SDS011;30877;43.706;10.780;2023-11-18T15:26:32;9.63;;;4.55;;
45114;SDS011;30877;43.706;10.780;2023-11-18T15:29:04;10.50;;;5.57;;
45114;SDS011;30877;43.706;10.780;2023-11-18T15:31:43;8.68;;;5.05;;
45114;SDS011;30877;43.706;10.780;2023-11-18T15:34:12;20.45;;;5.10;;
45114;SDS011;30877;43.706;10.780;2023-11-18T15:36:41;12.48;;;5.93;;
45114;SDS011;30877;43.706;10.780;2023-11-18T15:39:10;12.52;;;4.85;;
45114;SDS011;30877;43.706;10.780;2023-11-18T15:41:42;7.20;;;4.10;;
45114;SDS011;30877;43.706;10.780;2023-11-18T15:44:10;30.23;;;6.15;;
45114;SDS011;30877;43.706;10.780;2023-11-18T15:46:40;59.40;;;11.05;;